createdAt,value
2018-05-31T00:00:57.233Z,1020.79
2018-05-31T00:01:57.804Z,1020.79
2018-05-31T00:02:58.386Z,1020.80
2018-05-31T00:03:58.961Z,1020.69
2018-05-31T00:04:59.544Z,1020.78
2018-05-31T00:06:00.170Z,1020.74
2018-05-31T00:07:00.750Z,1020.73
2018-05-31T00:08:01.328Z,1020.75
2018-05-31T00:09:01.957Z,1020.78
2018-05-31T00:10:02.536Z,1020.72
2018-05-31T00:11:03.115Z,1020.72
2018-05-31T00:12:03.695Z,1020.74
2018-05-31T00:13:04.276Z,1020.71
2018-05-31T00:14:04.853Z,1020.65
2018-05-31T00:15:05.480Z,1020.68
2018-05-31T00:16:06.056Z,1020.69
2018-05-31T00:17:06.635Z,1020.66
2018-05-31T00:18:07.213Z,1020.59
2018-05-31T00:19:07.791Z,1020.69
2018-05-31T00:20:08.370Z,1020.68
2018-05-31T00:21:08.953Z,1020.61
2018-05-31T00:22:09.621Z,1020.61
2018-05-31T00:23:10.200Z,1020.73
2018-05-31T00:24:10.777Z,1020.65
2018-05-31T00:25:11.391Z,1020.68
2018-05-31T00:26:11.934Z,1020.66
2018-05-31T00:27:12.515Z,1020.68
2018-05-31T00:28:13.096Z,1020.56
2018-05-31T00:29:13.674Z,1020.67
2018-05-31T00:30:14.254Z,1020.67
2018-05-31T00:31:14.983Z,1020.64
2018-05-31T00:32:15.611Z,1020.65
2018-05-31T00:33:16.192Z,1020.65
2018-05-31T00:34:16.774Z,1020.60
2018-05-31T00:35:17.350Z,1020.61
2018-05-31T00:36:17.931Z,1020.57
2018-05-31T00:37:18.511Z,1020.56
2018-05-31T00:38:19.090Z,1020.53
2018-05-31T00:39:19.669Z,1020.54
2018-05-31T00:40:20.250Z,1020.61
2018-05-31T00:41:20.880Z,1020.55
2018-05-31T00:42:21.457Z,1020.55
2018-05-31T00:43:22.034Z,1020.52
2018-05-31T00:44:22.613Z,1020.54
2018-05-31T00:45:23.190Z,1020.49
2018-05-31T00:46:23.768Z,1020.49
2018-05-31T00:47:24.346Z,1020.53
2018-05-31T00:48:24.981Z,1020.48
2018-05-31T00:49:25.554Z,1020.63
2018-05-31T00:50:26.133Z,1020.53
2018-05-31T00:51:26.761Z,1020.48
2018-05-31T00:52:27.341Z,1020.56
2018-05-31T00:53:27.921Z,1020.53
2018-05-31T00:54:28.502Z,1020.46
2018-05-31T00:55:29.080Z,1020.51
2018-05-31T00:56:29.710Z,1020.51
2018-05-31T00:57:30.291Z,1020.47
2018-05-31T00:58:30.874Z,1020.47
2018-05-31T00:59:31.448Z,1020.45
2018-05-31T01:00:32.027Z,1020.38
2018-05-31T01:01:32.657Z,1020.46
2018-05-31T01:02:33.236Z,1020.43
2018-05-31T01:03:33.816Z,1020.47
2018-05-31T01:04:34.395Z,1020.33
2018-05-31T01:05:35.018Z,1020.49
2018-05-31T01:06:35.597Z,1020.40
2018-05-31T01:07:36.175Z,1020.46
2018-05-31T01:08:36.770Z,1020.42
2018-05-31T01:09:37.382Z,1020.40
2018-05-31T01:10:37.962Z,1020.43
2018-05-31T01:11:38.591Z,1020.38
2018-05-31T01:12:39.167Z,1020.42
2018-05-31T01:13:39.745Z,1020.43
2018-05-31T01:14:40.323Z,1020.44
2018-05-31T01:15:40.904Z,1020.49
2018-05-31T01:16:41.482Z,1020.46
2018-05-31T01:17:42.113Z,1020.49
2018-05-31T01:18:42.692Z,1020.48
2018-05-31T01:19:43.267Z,1020.48
2018-05-31T01:20:43.843Z,1020.43
2018-05-31T01:21:44.420Z,1020.39
2018-05-31T01:22:45.002Z,1020.41
2018-05-31T01:23:45.575Z,1020.36
2018-05-31T01:24:46.204Z,1020.38
2018-05-31T01:25:46.781Z,1020.41
2018-05-31T01:26:47.360Z,1020.34
2018-05-31T01:27:47.937Z,1020.41
2018-05-31T01:28:48.517Z,1020.45
2018-05-31T01:29:49.094Z,1020.38
2018-05-31T01:30:49.672Z,1020.43
2018-05-31T01:31:50.252Z,1020.43
2018-05-31T01:32:50.830Z,1020.33
2018-05-31T01:33:51.408Z,1020.31
2018-05-31T01:34:52.036Z,1020.40
2018-05-31T01:35:52.616Z,1020.38
2018-05-31T01:36:53.244Z,1020.47
2018-05-31T01:37:53.823Z,1020.38
2018-05-31T01:38:54.403Z,1020.43
2018-05-31T01:39:54.981Z,1020.40
2018-05-31T01:40:55.560Z,1020.45
2018-05-31T01:41:56.187Z,1020.42
2018-05-31T01:42:56.814Z,1020.35
2018-05-31T01:43:57.395Z,1020.40
2018-05-31T01:44:57.975Z,1020.30
2018-05-31T01:45:58.555Z,1020.33
2018-05-31T01:46:59.133Z,1020.32
2018-05-31T01:47:59.713Z,1020.41
2018-05-31T01:49:00.290Z,1020.37
2018-05-31T01:50:00.869Z,1020.35
2018-05-31T01:51:01.448Z,1020.46
2018-05-31T01:52:02.063Z,1020.46
2018-05-31T01:53:02.642Z,1020.36
2018-05-31T01:54:03.222Z,1020.41
2018-05-31T01:55:03.804Z,1020.40
2018-05-31T01:56:04.433Z,1020.35
2018-05-31T01:57:05.061Z,1020.44
2018-05-31T01:58:05.693Z,1020.34
2018-05-31T01:59:06.315Z,1020.34
2018-05-31T02:00:06.892Z,1020.34
2018-05-31T02:01:07.470Z,1020.37
2018-05-31T02:02:08.050Z,1020.31
2018-05-31T02:03:08.629Z,1020.22
2018-05-31T02:04:09.207Z,1020.31
2018-05-31T02:05:09.787Z,1020.37
2018-05-31T02:06:10.363Z,1020.27
2018-05-31T02:07:10.946Z,1020.24
2018-05-31T02:08:11.562Z,1020.29
2018-05-31T02:09:12.141Z,1020.35
2018-05-31T02:10:12.720Z,1020.28
2018-05-31T02:11:13.296Z,1020.41
2018-05-31T02:12:13.875Z,1020.36
2018-05-31T02:13:14.507Z,1020.19
2018-05-31T02:14:15.131Z,1020.26
2018-05-31T02:15:15.707Z,1020.27
2018-05-31T02:16:16.284Z,1020.23
2018-05-31T02:17:16.910Z,1020.25
2018-05-31T02:18:17.490Z,1020.21
2018-05-31T02:19:18.120Z,1020.17
2018-05-31T02:20:18.699Z,1020.19
2018-05-31T02:21:19.278Z,1020.19
2018-05-31T02:22:19.858Z,1020.20
2018-05-31T02:23:20.435Z,1020.26
2018-05-31T02:24:21.016Z,1020.23
2018-05-31T02:25:21.596Z,1020.20
2018-05-31T02:26:22.176Z,1020.14
2018-05-31T02:27:22.754Z,1020.19
2018-05-31T02:28:23.340Z,1020.21
2018-05-31T02:29:23.969Z,1020.21
2018-05-31T02:30:24.589Z,1020.17
2018-05-31T02:31:25.167Z,1020.11
2018-05-31T02:32:25.745Z,1020.14
2018-05-31T02:33:26.324Z,1020.14
2018-05-31T02:34:26.952Z,1020.09
2018-05-31T02:35:27.572Z,1020.14
2018-05-31T02:36:28.153Z,1020.11
2018-05-31T02:37:28.729Z,1020.14
2018-05-31T02:38:29.308Z,1020.14
2018-05-31T02:39:29.885Z,1020.14
2018-05-31T02:40:30.465Z,1020.09
2018-05-31T02:41:31.045Z,1020.09
2018-05-31T02:42:31.624Z,1020.08
2018-05-31T02:43:32.205Z,1020.02
2018-05-31T02:44:32.779Z,1020.05
2018-05-31T02:45:33.409Z,1020.02
2018-05-31T02:46:33.989Z,1020.00
2018-05-31T02:47:34.566Z,1020.02
2018-05-31T02:48:35.196Z,1020.00
2018-05-31T02:49:35.827Z,1020.09
2018-05-31T02:50:36.404Z,1020.08
2018-05-31T02:51:36.982Z,1020.07
2018-05-31T02:52:37.565Z,1020.04
2018-05-31T02:53:38.335Z,1020.02
2018-05-31T02:54:38.916Z,1019.96
2018-05-31T02:55:39.494Z,1020.04
2018-05-31T02:56:40.074Z,1019.97
2018-05-31T02:57:40.650Z,1020.02
2018-05-31T02:58:41.228Z,1020.00
2018-05-31T02:59:41.805Z,1020.00
2018-05-31T03:00:42.385Z,1020.04
2018-05-31T03:01:42.962Z,1019.95
2018-05-31T03:02:43.590Z,1020.03
2018-05-31T03:03:44.170Z,1019.98
2018-05-31T03:04:44.748Z,1019.96
2018-05-31T03:05:45.327Z,1019.99
2018-05-31T03:06:45.905Z,1020.03
2018-05-31T03:07:46.490Z,1019.98
2018-05-31T03:08:47.060Z,1020.00
2018-05-31T03:09:47.638Z,1019.97
2018-05-31T03:10:48.215Z,1020.06
2018-05-31T03:11:48.842Z,1019.95
2018-05-31T03:12:49.423Z,1019.97
2018-05-31T03:13:50.001Z,1019.97
2018-05-31T03:14:50.580Z,1020.00
2018-05-31T03:15:51.161Z,1020.00
2018-05-31T03:16:51.738Z,1019.97
2018-05-31T03:17:52.315Z,1020.05
2018-05-31T03:18:52.944Z,1020.02
2018-05-31T03:19:53.575Z,1020.00
2018-05-31T03:20:54.153Z,1020.06
2018-05-31T03:21:54.731Z,1019.99
2018-05-31T03:22:55.354Z,1020.00
2018-05-31T03:23:55.985Z,1020.01
2018-05-31T03:24:56.563Z,1019.99
2018-05-31T03:25:57.142Z,1019.97
2018-05-31T03:26:57.729Z,1019.93
2018-05-31T03:27:58.300Z,1019.99
2018-05-31T03:28:58.878Z,1019.97
2018-05-31T03:29:59.458Z,1019.99
2018-05-31T03:31:00.038Z,1020.00
2018-05-31T03:32:00.618Z,1020.01
2018-05-31T03:33:01.198Z,1020.06
2018-05-31T03:34:01.773Z,1020.03
2018-05-31T03:35:02.404Z,1020.01
2018-05-31T03:36:03.024Z,1019.97
2018-05-31T03:37:03.654Z,1020.00
2018-05-31T03:38:04.233Z,1019.98
2018-05-31T03:39:04.811Z,1019.94
2018-05-31T03:40:05.389Z,1020.01
2018-05-31T03:41:06.018Z,1020.00
2018-05-31T03:42:06.598Z,1020.05
2018-05-31T03:43:07.175Z,1020.00
2018-05-31T03:44:07.754Z,1019.98
2018-05-31T03:45:08.334Z,1019.94
2018-05-31T03:46:08.908Z,1019.96
2018-05-31T03:47:09.527Z,1019.96
2018-05-31T03:48:10.104Z,1019.96
2018-05-31T03:49:10.682Z,1020.01
2018-05-31T03:50:11.261Z,1019.90
2018-05-31T03:51:11.876Z,1019.96
2018-05-31T03:52:12.503Z,1019.87
2018-05-31T03:53:13.083Z,1019.89
2018-05-31T03:54:13.712Z,1019.85
2018-05-31T03:55:14.289Z,1019.84
2018-05-31T03:56:14.869Z,1019.80
2018-05-31T03:57:15.448Z,1019.85
2018-05-31T03:58:16.027Z,1019.87
2018-05-31T03:59:16.607Z,1019.88
2018-05-31T04:00:17.189Z,1019.89
2018-05-31T04:01:17.768Z,1019.87
2018-05-31T04:02:18.346Z,1019.95
2018-05-31T04:03:18.924Z,1019.93
2018-05-31T04:04:19.553Z,1019.89
2018-05-31T04:05:20.134Z,1019.82
2018-05-31T04:06:20.719Z,1019.90
2018-05-31T04:07:21.337Z,1019.90
2018-05-31T04:08:21.919Z,1019.93
2018-05-31T04:09:22.493Z,1019.93
2018-05-31T04:10:23.071Z,1019.93
2018-05-31T04:11:23.649Z,1019.84
2018-05-31T04:12:24.279Z,1019.97
2018-05-31T04:13:24.910Z,1019.95
2018-05-31T04:14:25.489Z,1019.98
2018-05-31T04:15:26.077Z,1019.98
2018-05-31T04:16:26.656Z,1019.99
2018-05-31T04:17:27.237Z,1020.00
2018-05-31T04:18:27.852Z,1020.02
2018-05-31T04:19:28.484Z,1020.07
2018-05-31T04:20:29.098Z,1020.02
2018-05-31T04:21:29.676Z,1019.95
2018-05-31T04:22:30.257Z,1020.01
2018-05-31T04:23:30.835Z,1020.11
2018-05-31T04:24:31.412Z,1019.99
2018-05-31T04:25:31.991Z,1019.97
2018-05-31T04:26:32.569Z,1019.99
2018-05-31T04:27:33.149Z,1020.11
2018-05-31T04:28:33.727Z,1020.04
2018-05-31T04:29:34.304Z,1019.91
2018-05-31T04:30:34.935Z,1020.10
2018-05-31T04:31:35.513Z,1020.00
2018-05-31T04:32:36.091Z,1020.11
2018-05-31T04:33:36.677Z,1020.14
2018-05-31T04:34:37.248Z,1020.11
2018-05-31T04:35:37.826Z,1020.13
2018-05-31T04:36:38.444Z,1020.12
2018-05-31T04:37:39.036Z,1020.00
2018-05-31T04:38:39.663Z,1019.94
2018-05-31T04:39:40.241Z,1019.99
2018-05-31T04:40:40.822Z,1020.03
2018-05-31T04:41:41.400Z,1019.99
2018-05-31T04:42:42.022Z,1020.04
2018-05-31T04:43:42.607Z,1020.04
2018-05-31T04:44:43.219Z,1020.02
2018-05-31T04:45:43.799Z,1019.96
2018-05-31T04:46:44.427Z,1020.01
2018-05-31T04:47:45.005Z,1019.98
2018-05-31T04:48:45.586Z,1019.99
2018-05-31T04:49:46.166Z,1020.06
2018-05-31T04:50:46.741Z,1019.95
2018-05-31T04:51:47.320Z,1020.09
2018-05-31T04:52:47.898Z,1020.07
2018-05-31T04:53:48.476Z,1019.97
2018-05-31T04:54:49.055Z,1020.03
2018-05-31T04:55:49.686Z,1020.02
2018-05-31T04:56:50.306Z,1020.13
2018-05-31T04:57:50.888Z,1020.01
2018-05-31T04:58:51.518Z,1020.05
2018-05-31T04:59:52.094Z,1020.03
2018-05-31T05:00:52.675Z,1020.10
2018-05-31T05:01:53.253Z,1020.13
2018-05-31T05:02:53.865Z,1020.14
2018-05-31T05:03:54.413Z,1020.20
2018-05-31T05:04:54.993Z,1020.18
2018-05-31T05:05:55.571Z,1020.24
2018-05-31T05:06:56.150Z,1020.12
2018-05-31T05:07:56.727Z,1020.15
2018-05-31T05:08:57.356Z,1020.11
2018-05-31T05:09:57.934Z,1020.19
2018-05-31T05:10:58.513Z,1020.17
2018-05-31T05:11:59.141Z,1020.17
2018-05-31T05:12:59.723Z,1020.19
2018-05-31T05:14:00.351Z,1020.24
2018-05-31T05:15:00.931Z,1020.22
2018-05-31T05:16:01.550Z,1020.28
2018-05-31T05:17:02.128Z,1020.25
2018-05-31T05:18:02.708Z,1020.24
2018-05-31T05:19:03.287Z,1020.21
2018-05-31T05:20:03.868Z,1020.32
2018-05-31T05:21:04.445Z,1020.21
2018-05-31T05:22:05.025Z,1020.21
2018-05-31T05:23:05.604Z,1020.31
2018-05-31T05:24:06.181Z,1020.29
2018-05-31T05:25:06.759Z,1020.31
2018-05-31T05:26:07.340Z,1020.35
2018-05-31T05:27:07.966Z,1020.33
2018-05-31T05:28:08.539Z,1020.29
2018-05-31T05:29:09.119Z,1020.27
2018-05-31T05:30:09.699Z,1020.26
2018-05-31T05:31:10.377Z,1020.30
2018-05-31T05:32:10.956Z,1020.35
2018-05-31T05:33:11.558Z,1020.37
2018-05-31T05:34:12.114Z,1020.32
2018-05-31T05:35:12.792Z,1020.41
2018-05-31T05:36:13.620Z,1020.37
2018-05-31T05:37:14.199Z,1020.34
2018-05-31T05:38:14.778Z,1020.42
2018-05-31T05:39:15.356Z,1020.37
2018-05-31T05:40:15.931Z,1020.37
2018-05-31T05:41:16.511Z,1020.47
2018-05-31T05:42:17.089Z,1020.38
2018-05-31T05:43:17.668Z,1020.45
2018-05-31T05:44:18.247Z,1020.41
2018-05-31T05:45:18.824Z,1020.45
2018-05-31T05:46:19.401Z,1020.47
2018-05-31T05:47:19.980Z,1020.59
2018-05-31T05:48:20.560Z,1020.49
2018-05-31T05:49:21.139Z,1020.47
2018-05-31T05:50:21.769Z,1020.45
2018-05-31T05:51:22.347Z,1020.52
2018-05-31T05:52:22.975Z,1020.52
2018-05-31T05:53:23.555Z,1020.48
2018-05-31T05:54:24.182Z,1020.47
2018-05-31T05:55:24.762Z,1020.53
2018-05-31T05:56:25.343Z,1020.51
2018-05-31T05:57:25.916Z,1020.58
2018-05-31T05:58:26.496Z,1020.56
2018-05-31T05:59:27.080Z,1020.47
2018-05-31T06:00:27.657Z,1020.49
2018-05-31T06:01:28.287Z,1020.52
2018-05-31T06:02:28.857Z,1020.58
2018-05-31T06:03:29.437Z,1020.58
2018-05-31T06:04:30.013Z,1020.58
2018-05-31T06:05:30.592Z,1020.57
2018-05-31T06:06:31.219Z,1020.59
2018-05-31T06:07:31.798Z,1020.61
2018-05-31T06:08:32.378Z,1020.66
2018-05-31T06:09:33.003Z,1020.65
2018-05-31T06:10:33.581Z,1020.58
2018-05-31T06:11:34.160Z,1020.65
2018-05-31T06:12:34.792Z,1020.63
2018-05-31T06:13:35.373Z,1020.64
2018-05-31T06:14:35.947Z,1020.58
2018-05-31T06:15:36.565Z,1020.58
2018-05-31T06:16:37.152Z,1020.63
2018-05-31T06:17:37.731Z,1020.63
2018-05-31T06:18:38.311Z,1020.57
2018-05-31T06:19:38.942Z,1020.63
2018-05-31T06:20:39.522Z,1020.58
2018-05-31T06:21:40.101Z,1020.61
2018-05-31T06:22:40.682Z,1020.58
2018-05-31T06:23:41.265Z,1020.61
2018-05-31T06:24:41.839Z,1020.68
2018-05-31T06:25:42.417Z,1020.69
2018-05-31T06:26:43.047Z,1020.69
2018-05-31T06:27:43.628Z,1020.58
2018-05-31T06:28:44.256Z,1020.70
2018-05-31T06:29:44.885Z,1020.75
2018-05-31T06:30:45.510Z,1020.86
2018-05-31T06:31:46.132Z,1020.78
2018-05-31T06:32:46.705Z,1020.84
2018-05-31T06:33:47.285Z,1020.89
2018-05-31T06:34:47.861Z,1020.83
2018-05-31T06:35:48.441Z,1020.87
2018-05-31T06:36:49.019Z,1020.87
2018-05-31T06:37:49.600Z,1020.93
2018-05-31T06:38:50.219Z,1020.80
2018-05-31T06:39:50.802Z,1020.88
2018-05-31T06:40:51.376Z,1020.87
2018-05-31T06:41:51.955Z,1020.87
2018-05-31T06:42:52.558Z,1020.87
2018-05-31T06:43:53.109Z,1020.93
2018-05-31T06:44:53.737Z,1020.92
2018-05-31T06:45:54.355Z,1020.93
2018-05-31T06:46:54.898Z,1020.86
2018-05-31T06:47:55.525Z,1020.97
2018-05-31T06:48:56.152Z,1020.92
2018-05-31T06:49:56.733Z,1020.97
2018-05-31T06:50:57.311Z,1020.95
2018-05-31T06:51:57.891Z,1021.01
2018-05-31T06:52:58.519Z,1021.01
2018-05-31T06:53:59.097Z,1021.04
2018-05-31T06:54:59.680Z,1021.04
2018-05-31T06:56:00.255Z,1021.07
2018-05-31T06:57:00.835Z,1021.00
2018-05-31T06:58:01.419Z,1021.05
2018-05-31T06:59:02.038Z,1021.06
2018-05-31T07:00:02.616Z,1020.98
2018-05-31T07:01:03.196Z,1021.04
2018-05-31T07:02:03.778Z,1021.06
2018-05-31T07:03:04.359Z,1021.06
2018-05-31T07:04:04.935Z,1021.06
2018-05-31T07:05:05.566Z,1021.04
2018-05-31T07:06:06.209Z,1021.07
2018-05-31T07:07:06.816Z,1021.01
2018-05-31T07:08:07.400Z,1021.07
2018-05-31T07:09:08.062Z,1021.10
2018-05-31T07:10:08.642Z,1021.11
2018-05-31T07:11:09.221Z,1021.11
2018-05-31T07:12:09.806Z,1021.15
2018-05-31T07:13:10.379Z,1021.12
2018-05-31T07:14:10.958Z,1021.09
2018-05-31T07:15:11.536Z,1021.06
2018-05-31T07:16:12.113Z,1021.01
2018-05-31T07:17:12.690Z,1021.11
2018-05-31T07:18:13.267Z,1021.03
2018-05-31T07:19:13.848Z,1021.05
2018-05-31T07:20:14.421Z,1021.04
2018-05-31T07:21:14.998Z,1021.04
2018-05-31T07:22:15.626Z,1021.00
2018-05-31T07:23:16.207Z,1021.05
2018-05-31T07:24:16.786Z,1021.08
2018-05-31T07:25:17.412Z,1021.09
2018-05-31T07:26:17.992Z,1021.12
2018-05-31T07:27:18.622Z,1021.06
2018-05-31T07:28:19.152Z,1021.09
2018-05-31T07:29:19.781Z,1021.08
2018-05-31T07:30:20.360Z,1021.18
2018-05-31T07:31:20.941Z,1021.04
2018-05-31T07:32:21.520Z,1021.10
2018-05-31T07:33:22.100Z,1021.14
2018-05-31T07:34:22.680Z,1021.10
2018-05-31T07:35:23.307Z,1021.09
2018-05-31T07:36:23.888Z,1021.13
2018-05-31T07:37:24.617Z,1021.17
2018-05-31T07:38:25.195Z,1021.15
2018-05-31T07:39:25.774Z,1021.18
2018-05-31T07:40:26.403Z,1021.24
2018-05-31T07:41:26.981Z,1021.24
2018-05-31T07:42:27.561Z,1021.16
2018-05-31T07:43:28.138Z,1021.24
2018-05-31T07:44:28.769Z,1021.31
2018-05-31T07:45:29.350Z,1021.30
2018-05-31T07:46:29.925Z,1021.25
2018-05-31T07:47:30.505Z,1021.20
2018-05-31T07:48:31.083Z,1021.23
2018-05-31T07:49:31.713Z,1021.26
2018-05-31T07:50:32.289Z,1021.30
2018-05-31T07:51:32.867Z,1021.26
2018-05-31T07:52:33.494Z,1021.24
2018-05-31T07:53:34.073Z,1021.22
2018-05-31T07:54:34.652Z,1021.27
2018-05-31T07:55:35.230Z,1021.28
2018-05-31T07:56:35.816Z,1021.32
2018-05-31T07:57:36.388Z,1021.31
2018-05-31T07:58:36.969Z,1021.38
2018-05-31T07:59:37.544Z,1021.31
2018-05-31T08:00:38.174Z,1021.34
2018-05-31T08:01:38.755Z,1021.38
2018-05-31T08:02:39.334Z,1021.28
2018-05-31T08:03:39.912Z,1021.32
2018-05-31T08:04:40.489Z,1021.21
2018-05-31T08:05:41.073Z,1021.29
2018-05-31T08:06:41.647Z,1021.27
2018-05-31T08:07:42.275Z,1021.32
2018-05-31T08:08:42.855Z,1021.30
2018-05-31T08:09:43.432Z,1021.39
2018-05-31T08:10:44.066Z,1021.35
2018-05-31T08:11:44.642Z,1021.40
2018-05-31T08:12:45.220Z,1021.35
2018-05-31T08:13:45.801Z,1021.31
2018-05-31T08:14:46.378Z,1021.34
2018-05-31T08:15:46.957Z,1021.29
2018-05-31T08:16:47.585Z,1021.38
2018-05-31T08:17:48.164Z,1021.38
2018-05-31T08:18:48.743Z,1021.34
2018-05-31T08:19:49.324Z,1021.40
2018-05-31T08:20:49.904Z,1021.35
2018-05-31T08:21:50.478Z,1021.42
2018-05-31T08:22:51.058Z,1021.42
2018-05-31T08:23:51.635Z,1021.38
2018-05-31T08:24:52.257Z,1021.42
2018-05-31T08:25:52.833Z,1021.38
2018-05-31T08:26:53.462Z,1021.38
2018-05-31T08:27:54.041Z,1021.35
2018-05-31T08:28:54.620Z,1021.38
2018-05-31T08:29:55.207Z,1021.40
2018-05-31T08:30:55.835Z,1021.39
2018-05-31T08:31:56.463Z,1021.41
2018-05-31T08:32:57.042Z,1021.42
2018-05-31T08:33:57.623Z,1021.36
2018-05-31T08:34:58.210Z,1021.38
2018-05-31T08:35:58.831Z,1021.40
2018-05-31T08:36:59.409Z,1021.37
2018-05-31T08:37:59.987Z,1021.44
2018-05-31T08:39:00.569Z,1021.47
2018-05-31T08:40:01.200Z,1021.43
2018-05-31T08:41:01.767Z,1021.49
2018-05-31T08:42:02.351Z,1021.45
2018-05-31T08:43:02.932Z,1021.47
2018-05-31T08:44:03.509Z,1021.47
2018-05-31T08:45:04.137Z,1021.52
2018-05-31T08:46:04.720Z,1021.57
2018-05-31T08:47:05.349Z,1021.48
2018-05-31T08:48:05.977Z,1021.50
2018-05-31T08:49:06.558Z,1021.48
2018-05-31T08:50:07.136Z,1021.48
2018-05-31T08:51:07.721Z,1021.52
2018-05-31T08:52:08.297Z,1021.56
2018-05-31T08:53:08.878Z,1021.59
2018-05-31T08:54:09.454Z,1021.54
2018-05-31T08:55:10.036Z,1021.52
2018-05-31T08:56:10.617Z,1021.57
2018-05-31T08:57:11.198Z,1021.60
2018-05-31T08:58:11.775Z,1021.53
2018-05-31T08:59:12.355Z,1021.55
2018-05-31T09:00:12.933Z,1021.55
2018-05-31T09:01:13.562Z,1021.61
2018-05-31T09:02:14.142Z,1021.62
2018-05-31T09:03:14.776Z,1021.53
2018-05-31T09:04:15.357Z,1021.58
2018-05-31T09:05:15.939Z,1021.67
2018-05-31T09:06:16.519Z,1021.65
2018-05-31T09:07:17.098Z,1021.66
2018-05-31T09:08:17.677Z,1021.70
2018-05-31T09:09:18.259Z,1021.69
2018-05-31T09:10:18.881Z,1021.69
2018-05-31T09:11:19.467Z,1021.67
2018-05-31T09:12:20.088Z,1021.71
2018-05-31T09:13:20.666Z,1021.64
2018-05-31T09:14:21.298Z,1021.69
2018-05-31T09:15:21.876Z,1021.68
2018-05-31T09:16:22.506Z,1021.75
2018-05-31T09:17:23.088Z,1021.74
2018-05-31T09:18:23.818Z,1021.70
2018-05-31T09:19:24.397Z,1021.75
2018-05-31T09:20:24.978Z,1021.78
2018-05-31T09:21:25.556Z,1021.76
2018-05-31T09:22:26.141Z,1021.75
2018-05-31T09:23:26.715Z,1021.78
2018-05-31T09:24:27.296Z,1021.84
2018-05-31T09:25:27.878Z,1021.84
2018-05-31T09:26:28.456Z,1021.83
2018-05-31T09:27:29.038Z,1021.88
2018-05-31T09:28:29.661Z,1021.84
2018-05-31T09:29:30.200Z,1021.84
2018-05-31T09:30:30.831Z,1021.80
2018-05-31T09:31:31.410Z,1021.85
2018-05-31T09:32:32.042Z,1021.84
2018-05-31T09:33:32.623Z,1021.92
2018-05-31T09:34:33.252Z,1021.97
2018-05-31T09:35:33.836Z,1021.84
2018-05-31T09:36:34.411Z,1021.91
2018-05-31T09:37:34.994Z,1021.94
2018-05-31T09:38:35.575Z,1021.94
2018-05-31T09:39:36.154Z,1021.94
2018-05-31T09:40:36.734Z,1021.88
2018-05-31T09:41:37.313Z,1021.95
2018-05-31T09:42:37.895Z,1021.95
2018-05-31T09:43:38.476Z,1021.89
2018-05-31T09:44:39.105Z,1021.83
2018-05-31T09:45:39.685Z,1021.88
2018-05-31T09:46:40.307Z,1021.92
2018-05-31T09:47:40.846Z,1021.94
2018-05-31T09:48:41.475Z,1021.96
2018-05-31T09:49:42.054Z,1021.91
2018-05-31T09:50:42.633Z,1021.91
2018-05-31T09:51:43.213Z,1021.98
2018-05-31T09:52:43.794Z,1022.04
2018-05-31T09:53:44.467Z,1021.98
2018-05-31T09:54:45.047Z,1021.93
2018-05-31T09:55:45.630Z,1021.96
2018-05-31T09:56:46.252Z,1021.99
2018-05-31T09:57:46.831Z,1021.94
2018-05-31T09:58:47.412Z,1021.95
2018-05-31T09:59:47.990Z,1022.01
2018-05-31T10:00:48.574Z,1022.01
2018-05-31T10:01:49.191Z,1021.90
2018-05-31T10:02:49.770Z,1021.95
2018-05-31T10:03:50.401Z,1021.97
2018-05-31T10:04:51.069Z,1021.99
2018-05-31T10:05:51.649Z,1021.97
2018-05-31T10:06:52.232Z,1022.04
2018-05-31T10:07:52.808Z,1022.00
2018-05-31T10:08:53.444Z,1021.94
2018-05-31T10:09:54.021Z,1021.97
2018-05-31T10:10:54.651Z,1022.00
2018-05-31T10:11:55.232Z,1021.97
2018-05-31T10:12:55.810Z,1021.98
2018-05-31T10:13:56.390Z,1022.00
2018-05-31T10:14:56.968Z,1022.01
2018-05-31T10:15:57.548Z,1022.01
2018-05-31T10:16:58.125Z,1021.97
2018-05-31T10:17:58.705Z,1022.06
2018-05-31T10:18:59.288Z,1021.99
2018-05-31T10:19:59.865Z,1021.98
2018-05-31T10:21:00.447Z,1022.02
2018-05-31T10:22:01.028Z,1022.02
2018-05-31T10:23:01.610Z,1022.13
2018-05-31T10:24:02.230Z,1022.09
2018-05-31T10:25:02.812Z,1022.09
2018-05-31T10:26:03.394Z,1022.11
2018-05-31T10:27:04.022Z,1022.23
2018-05-31T10:28:04.602Z,1022.16
2018-05-31T10:29:05.188Z,1022.11
2018-05-31T10:30:05.853Z,1022.20
2018-05-31T10:31:06.435Z,1022.23
2018-05-31T10:32:07.015Z,1022.15
2018-05-31T10:33:07.647Z,1022.15
2018-05-31T10:34:08.229Z,1022.10
2018-05-31T10:35:08.809Z,1022.21
2018-05-31T10:36:09.389Z,1022.21
2018-05-31T10:37:09.971Z,1022.19
2018-05-31T10:38:10.551Z,1022.15
2018-05-31T10:39:11.132Z,1022.31
2018-05-31T10:40:11.713Z,1022.17
2018-05-31T10:41:12.291Z,1022.21
2018-05-31T10:42:12.869Z,1022.22
2018-05-31T10:43:13.449Z,1022.23
2018-05-31T10:44:14.030Z,1022.21
2018-05-31T10:45:14.662Z,1022.14
2018-05-31T10:46:15.309Z,1022.29
2018-05-31T10:47:15.872Z,1022.22
2018-05-31T10:48:16.451Z,1022.34
2018-05-31T10:49:17.032Z,1022.20
2018-05-31T10:50:17.660Z,1022.17
2018-05-31T10:51:18.289Z,1022.34
2018-05-31T10:52:18.868Z,1022.22
2018-05-31T10:53:19.447Z,1022.19
2018-05-31T10:54:20.031Z,1022.24
2018-05-31T10:55:20.649Z,1022.22
2018-05-31T10:56:21.227Z,1022.22
2018-05-31T10:57:21.809Z,1022.31
2018-05-31T10:58:22.391Z,1022.27
2018-05-31T10:59:22.976Z,1022.25
2018-05-31T11:00:23.559Z,1022.20
2018-05-31T11:01:24.144Z,1022.29
2018-05-31T11:02:24.729Z,1022.30
2018-05-31T11:03:25.317Z,1022.20
2018-05-31T11:04:25.946Z,1022.30
2018-05-31T11:05:26.536Z,1022.30
2018-05-31T11:06:27.164Z,1022.25
2018-05-31T11:07:27.797Z,1022.18
2018-05-31T11:08:28.381Z,1022.22
2018-05-31T11:09:28.964Z,1022.25
2018-05-31T11:10:29.546Z,1022.26
2018-05-31T11:11:30.131Z,1022.20
2018-05-31T11:12:30.715Z,1022.25
2018-05-31T11:13:31.298Z,1022.28
2018-05-31T11:14:31.879Z,1022.37
2018-05-31T11:15:32.465Z,1022.31
2018-05-31T11:16:33.047Z,1022.34
2018-05-31T11:17:33.629Z,1022.24
2018-05-31T11:18:34.215Z,1022.34
2018-05-31T11:19:34.798Z,1022.32
2018-05-31T11:20:35.586Z,1022.40
2018-05-31T11:21:36.171Z,1022.28
2018-05-31T11:22:36.801Z,1022.38
2018-05-31T11:23:37.385Z,1022.41
2018-05-31T11:24:38.018Z,1022.37
2018-05-31T11:25:38.602Z,1022.42
2018-05-31T11:26:39.187Z,1022.39
2018-05-31T11:27:39.771Z,1022.40
2018-05-31T11:28:40.355Z,1022.46
2018-05-31T11:29:40.942Z,1022.54
2018-05-31T11:30:41.626Z,1022.45
2018-05-31T11:31:42.208Z,1022.45
2018-05-31T11:32:42.843Z,1022.38
2018-05-31T11:33:43.526Z,1022.31
2018-05-31T11:34:44.123Z,1022.42
2018-05-31T11:35:44.694Z,1022.33
2018-05-31T11:36:45.321Z,1022.33
2018-05-31T11:37:45.907Z,1022.37
2018-05-31T11:38:46.492Z,1022.46
2018-05-31T11:39:47.077Z,1022.41
2018-05-31T11:40:47.659Z,1022.31
2018-05-31T11:41:48.247Z,1022.29
2018-05-31T11:42:48.824Z,1022.40
2018-05-31T11:43:49.410Z,1022.35
2018-05-31T11:44:49.993Z,1022.37
2018-05-31T11:45:50.630Z,1022.34
2018-05-31T11:46:51.216Z,1022.41
2018-05-31T11:47:51.802Z,1022.43
2018-05-31T11:48:52.384Z,1022.37
2018-05-31T11:49:53.017Z,1022.40
2018-05-31T11:50:53.653Z,1022.36
2018-05-31T11:51:54.290Z,1022.45
2018-05-31T11:52:54.876Z,1022.45
2018-05-31T11:53:55.462Z,1022.36
2018-05-31T11:54:56.047Z,1022.32
2018-05-31T11:55:56.633Z,1022.35
2018-05-31T11:56:57.217Z,1022.37
2018-05-31T11:57:57.803Z,1022.31
2018-05-31T11:58:58.389Z,1022.38
2018-05-31T11:59:58.973Z,1022.39
2018-05-31T12:00:59.557Z,1022.44
2018-05-31T12:02:00.194Z,1022.40
2018-05-31T12:03:00.777Z,1022.42
2018-05-31T12:04:01.364Z,1022.41
2018-05-31T12:05:01.991Z,1022.47
2018-05-31T12:06:02.579Z,1022.53
2018-05-31T12:07:03.209Z,1022.43
2018-05-31T12:08:03.796Z,1022.42
2018-05-31T12:09:04.380Z,1022.45
2018-05-31T12:10:05.011Z,1022.44
2018-05-31T12:11:05.595Z,1022.34
2018-05-31T12:12:06.187Z,1022.42
2018-05-31T12:13:06.762Z,1022.29